Time;durP1;ratioP1;P1;durP2;ratioP2;P2;SDS_P1;SDS_P2;PMS_P1;PMS_P2;Temp;Humidity;BMP_temperature;BMP_pressure;BME280_temperature;BME280_humidity;BME280_pressure;Samples;Min_cycle;Max_cycle;Signal;HPM_P1;HPM_P2
2022/11/17 00:01:31;;;;;;;21.97;14.77;;;3.40;99.90;;;;;;8370036;28;20189;-81
2022/11/17 00:05:34;;;;;;;24.47;14.83;;;3.50;99.90;;;;;;8374835;28;20193;-80
2022/11/17 00:09:35;;;;;;;23.90;16.37;;;3.40;99.90;;;;;;8374966;28;20216;-79
2022/11/17 00:22:16;;;;;;;21.63;15.40;;;3.40;99.90;;;;;;8364612;28;20193;-80
2022/11/17 00:26:23;;;;;;;23.50;15.27;;;3.40;99.90;;;;;;8373920;28;20253;-80
2022/11/17 00:34:43;;;;;;;20.90;16.20;;;3.40;99.90;;;;;;8366044;28;21081;-80
2022/11/17 00:38:44;;;;;;;24.80;16.70;;;3.30;99.90;;;;;;8365262;28;20276;-80
2022/11/17 00:42:45;;;;;;;21.77;15.03;;;3.40;99.90;;;;;;8365934;28;20180;-81
2022/11/17 00:46:46;;;;;;;21.67;15.40;;;3.30;99.90;;;;;;8366442;28;20258;-79
2022/11/17 00:50:47;;;;;;;20.37;15.00;;;3.40;99.90;;;;;;8370141;28;20184;-79
2022/11/17 00:54:47;;;;;;;21.13;14.57;;;3.40;99.90;;;;;;8366820;28;20185;-79
2022/11/17 00:58:48;;;;;;;22.23;15.57;;;3.40;99.90;;;;;;8362645;28;20255;-79
2022/11/17 01:02:49;;;;;;;21.40;14.30;;;3.30;99.90;;;;;;8371834;28;20300;-79
2022/11/17 01:06:50;;;;;;;23.93;15.40;;;3.30;99.90;;;;;;8370428;28;20203;-79
2022/11/17 01:10:51;;;;;;;23.50;15.47;;;3.40;99.90;;;;;;8368273;28;20178;-79
2022/11/17 01:14:52;;;;;;;23.10;14.07;;;3.30;99.90;;;;;;8370779;28;20173;-79
2022/11/17 01:18:53;;;;;;;19.13;14.50;;;3.30;99.90;;;;;;8370477;28;20604;-79
2022/11/17 01:22:54;;;;;;;22.73;15.57;;;3.30;99.90;;;;;;8373770;28;20203;-79
2022/11/17 01:26:55;;;;;;;20.40;14.57;;;3.40;99.90;;;;;;8372595;28;20267;-79
2022/11/17 01:31:07;;;;;;;18.00;13.30;;;3.30;99.90;;;;;;8374422;28;20845;-79
2022/11/17 01:35:08;;;;;;;19.53;13.07;;;3.30;99.90;;;;;;8376917;28;20185;-79
2022/11/17 01:39:09;;;;;;;17.97;13.27;;;3.30;99.90;;;;;;8372961;28;20224;-80
2022/11/17 01:43:10;;;;;;;17.10;12.90;;;3.30;99.90;;;;;;8367580;28;20628;-79
2022/11/17 01:47:37;;;;;;;18.60;14.33;;;3.40;99.90;;;;;;8369860;28;20201;-79
2022/11/17 01:51:44;;;;;;;18.67;12.77;;;3.30;99.90;;;;;;8383988;28;20197;-80
2022/11/17 01:55:55;;;;;;;17.37;12.87;;;3.40;99.90;;;;;;8386247;28;20178;-79
2022/11/17 02:00:03;;;;;;;16.67;12.17;;;3.40;99.90;;;;;;8370744;28;20204;-78
2022/11/17 02:04:04;;;;;;;19.37;13.40;;;3.40;99.90;;;;;;8376334;28;20621;-78
2022/11/17 02:08:06;;;;;;;18.37;13.10;;;3.30;99.90;;;;;;8375023;28;20212;-80
2022/11/17 02:12:12;;;;;;;18.57;12.93;;;3.40;99.90;;;;;;8372408;28;20178;-79
2022/11/17 02:16:15;;;;;;;16.53;11.80;;;3.40;99.90;;;;;;8368734;28;20184;-80
2022/11/17 02:20:40;;;;;;;18.57;12.70;;;3.40;99.90;;;;;;8376752;28;20185;-79
2022/11/17 02:25:11;;;;;;;16.83;12.00;;;3.40;99.90;;;;;;8369394;28;20177;-80
2022/11/17 02:29:31;;;;;;;18.63;12.90;;;3.40;99.90;;;;;;8368111;28;20405;-79
2022/11/17 02:33:50;;;;;;;18.20;13.40;;;3.50;99.90;;;;;;8375702;28;20184;-79
2022/11/17 02:38:12;;;;;;;18.13;12.87;;;3.50;99.90;;;;;;8365372;28;20178;-80
2022/11/17 02:44:02;;;;;;;15.70;11.77;;;3.40;99.90;;;;;;8374387;28;20185;-79
2022/11/17 02:46:45;;;;;;;17.97;12.57;;;3.40;99.90;;;;;;8370118;28;21013;-78
2022/11/17 02:50:47;;;;;;;42.07;25.47;;;3.50;99.90;;;;;;8363835;28;20177;-80
2022/11/17 02:54:48;;;;;;;29.47;21.57;;;3.40;99.90;;;;;;8369628;28;20174;-79
2022/11/17 02:58:54;;;;;;;19.73;13.70;;;3.40;99.90;;;;;;8364762;28;20216;-80
2022/11/17 03:03:33;;;;;;;18.93;12.80;;;3.40;99.90;;;;;;8383745;28;20182;-79
2022/11/17 03:07:52;;;;;;;23.93;14.80;;;3.40;99.90;;;;;;8363872;28;20477;-77
2022/11/17 03:12:05;;;;;;;19.67;13.77;;;3.40;99.90;;;;;;8374220;28;20212;-79
2022/11/17 03:16:25;;;;;;;21.83;13.80;;;3.50;99.90;;;;;;8361852;28;20205;-78
2022/11/17 03:20:39;;;;;;;23.73;14.77;;;3.50;99.90;;;;;;8366432;28;20178;-78
2022/11/17 03:24:52;;;;;;;16.90;11.47;;;3.40;99.90;;;;;;8371812;28;20209;-79
2022/11/17 03:28:56;;;;;;;27.50;15.50;;;3.40;99.90;;;;;;8365268;28;20209;-79
2022/11/17 03:33:04;;;;;;;25.17;14.13;;;3.50;99.90;;;;;;8377295;28;20178;-79
2022/11/17 03:37:07;;;;;;;24.73;13.37;;;3.50;99.90;;;;;;8369296;28;20323;-79
2022/11/17 03:41:10;;;;;;;24.30;14.17;;;3.50;99.90;;;;;;8364864;28;20224;-78
2022/11/17 03:45:16;;;;;;;21.37;12.57;;;3.50;99.90;;;;;;8374209;28;20185;-79
2022/11/17 03:49:32;;;;;;;25.07;14.73;;;3.50;99.90;;;;;;8383826;28;20782;-79
2022/11/17 03:53:34;;;;;;;26.23;15.57;;;3.50;99.90;;;;;;8373889;28;20542;-78
2022/11/17 03:57:47;;;;;;;15.90;10.40;;;3.50;99.90;;;;;;8366432;28;20213;-79
2022/11/17 04:01:48;;;;;;;22.07;13.13;;;3.50;99.90;;;;;;8360483;28;20189;-79
2022/11/17 04:05:49;;;;;;;15.97;10.33;;;3.50;99.90;;;;;;8363955;28;20311;-79
2022/11/17 04:09:50;;;;;;;20.53;11.47;;;3.50;99.90;;;;;;8361819;28;20312;-78
2022/11/17 04:18:10;;;;;;;15.23;10.23;;;3.50;99.90;;;;;;8363227;28;20200;-80
2022/11/17 04:22:11;;;;;;;23.33;12.90;;;3.50;99.90;;;;;;8364981;28;20232;-79
2022/11/17 04:30:31;;;;;;;29.33;14.80;;;3.50;99.90;;;;;;8363055;28;20192;-79
2022/11/17 04:34:32;;;;;;;30.07;15.47;;;3.50;99.90;;;;;;8374380;28;20469;-79
2022/11/17 04:38:33;;;;;;;24.33;11.83;;;3.50;99.90;;;;;;8371585;28;20190;-79
2022/11/17 04:42:34;;;;;;;22.90;12.97;;;3.50;99.90;;;;;;8364524;28;20193;-79
2022/11/17 04:46:36;;;;;;;20.30;11.97;;;3.50;99.90;;;;;;8363506;28;20219;-79
2022/11/17 04:50:37;;;;;;;18.27;11.23;;;3.40;99.90;;;;;;8367337;28;20271;-78
2022/11/17 04:54:38;;;;;;;18.07;10.57;;;3.50;99.90;;;;;;8368103;28;20174;-78
2022/11/17 04:58:40;;;;;;;16.53;9.67;;;3.50;99.90;;;;;;8369266;28;20241;-78
2022/11/17 05:02:40;;;;;;;13.10;8.63;;;3.50;99.90;;;;;;8376750;28;20181;-78
2022/11/17 05:06:44;;;;;;;12.80;9.27;;;3.50;99.90;;;;;;8375533;28;20224;-78
2022/11/17 05:15:05;;;;;;;12.27;8.73;;;3.50;99.90;;;;;;8372273;28;20260;-79
2022/11/17 05:19:12;;;;;;;19.77;10.97;;;3.50;99.90;;;;;;8384338;28;20189;-79
2022/11/17 05:27:35;;;;;;;22.70;11.60;;;3.50;99.90;;;;;;8371007;28;20650;-78
2022/11/17 05:31:36;;;;;;;16.83;9.77;;;3.50;99.90;;;;;;8374459;28;20181;-79
2022/11/17 05:35:37;;;;;;;16.43;9.63;;;3.60;99.90;;;;;;8369254;28;20210;-79
2022/11/17 05:39:38;;;;;;;29.17;15.50;;;3.60;99.90;;;;;;8376614;28;20185;-79
2022/11/17 05:43:39;;;;;;;23.30;12.80;;;3.60;99.90;;;;;;8374281;28;20181;-78
2022/11/17 05:47:40;;;;;;;27.60;13.10;;;3.60;99.90;;;;;;8370711;28;20204;-78
2022/11/17 05:51:40;;;;;;;21.87;12.43;;;3.60;99.90;;;;;;8377060;28;20177;-78
2022/11/17 05:55:41;;;;;;;18.20;10.60;;;3.60;99.90;;;;;;8372900;28;20273;-79
2022/11/17 05:59:49;;;;;;;20.83;12.27;;;3.60;99.90;;;;;;8372136;28;20270;-78
2022/11/17 06:03:54;;;;;;;14.73;10.80;;;3.60;99.90;;;;;;8366805;28;20192;-79
2022/11/17 06:07:57;;;;;;;16.97;11.67;;;3.60;99.90;;;;;;8366550;28;20205;-79
2022/11/17 06:11:58;;;;;;;23.17;15.03;;;3.60;99.90;;;;;;8367635;28;20293;-79
2022/11/17 06:16:03;;;;;;;18.67;12.17;;;3.60;99.90;;;;;;8373505;28;20185;-79
2022/11/17 06:20:18;;;;;;;19.80;12.93;;;3.60;99.90;;;;;;8375010;28;20260;-79
2022/11/17 06:24:19;;;;;;;22.63;14.33;;;3.70;99.90;;;;;;8366259;28;20186;-78
2022/11/17 06:28:22;;;;;;;22.20;14.33;;;3.70;99.90;;;;;;8366340;28;20234;-79
2022/11/17 06:32:22;;;;;;;24.07;14.07;;;3.70;99.90;;;;;;8371226;28;20223;-79
2022/11/17 06:36:23;;;;;;;17.47;12.13;;;3.70;99.90;;;;;;8367712;28;20178;-79
2022/11/17 06:40:25;;;;;;;19.93;13.60;;;3.70;99.90;;;;;;8372862;28;20174;-79
2022/11/17 06:44:26;;;;;;;19.57;13.33;;;3.70;99.90;;;;;;8373025;28;20200;-79
2022/11/17 06:48:27;;;;;;;17.77;13.27;;;3.70;99.90;;;;;;8370842;28;20205;-78
2022/11/17 06:52:27;;;;;;;18.43;13.67;;;3.70;99.90;;;;;;8370790;28;20215;-79
2022/11/17 06:56:29;;;;;;;17.20;12.70;;;3.70;99.90;;;;;;8380375;28;20294;-80
2022/11/17 07:00:31;;;;;;;16.30;11.47;;;3.80;99.90;;;;;;8377426;28;20231;-80
2022/11/17 07:04:31;;;;;;;15.07;11.30;;;3.80;99.90;;;;;;8368558;28;20186;-79
2022/11/17 07:08:33;;;;;;;14.90;11.17;;;3.80;99.90;;;;;;8366732;28;20216;-79
2022/11/17 07:12:34;;;;;;;19.20;13.73;;;3.80;99.90;;;;;;8364613;28;20214;-79
2022/11/17 07:16:35;;;;;;;27.30;17.97;;;3.80;99.90;;;;;;8364928;28;20189;-80
2022/11/17 07:20:36;;;;;;;28.33;17.57;;;3.80;99.90;;;;;;8370332;28;20181;-79
2022/11/17 07:24:36;;;;;;;22.43;16.47;;;3.80;99.90;;;;;;8372414;28;20189;-79
2022/11/17 07:28:37;;;;;;;21.67;14.47;;;3.90;99.90;;;;;;8359887;28;20217;-79
2022/11/17 07:32:38;;;;;;;16.27;13.10;;;3.90;99.90;;;;;;8372629;28;20190;-80
2022/11/17 07:36:39;;;;;;;37.47;16.30;;;3.90;99.90;;;;;;8365943;28;20185;-79
2022/11/17 07:40:39;;;;;;;29.53;17.73;;;3.90;99.90;;;;;;8374097;28;20204;-80
2022/11/17 07:44:40;;;;;;;30.70;18.40;;;3.90;99.90;;;;;;8372314;28;20187;-81
2022/11/17 07:48:42;;;;;;;32.60;15.63;;;3.90;99.90;;;;;;8366038;28;20205;-79
2022/11/17 07:52:43;;;;;;;30.83;16.13;;;3.90;99.90;;;;;;8365196;28;20193;-80
2022/11/17 07:56:44;;;;;;;18.70;13.57;;;3.90;99.90;;;;;;8374459;28;20205;-80
2022/11/17 08:00:44;;;;;;;23.07;15.30;;;4.00;99.90;;;;;;8364404;28;20185;-78
2022/11/17 08:04:45;;;;;;;30.43;17.97;;;4.00;99.90;;;;;;8372681;28;20182;-79
2022/11/17 08:08:48;;;;;;;25.23;15.67;;;4.00;99.90;;;;;;8372974;28;20213;-78
2022/11/17 08:12:53;;;;;;;13.90;11.40;;;4.10;99.90;;;;;;8366470;28;20181;-78
2022/11/17 08:16:54;;;;;;;17.20;11.43;;;4.10;99.90;;;;;;8371915;28;20189;-78
2022/11/17 08:21:09;;;;;;;28.30;14.90;;;4.10;99.90;;;;;;8367485;28;20240;-79
2022/11/17 08:25:10;;;;;;;19.67;12.17;;;4.10;99.90;;;;;;8356168;28;20201;-79
2022/11/17 08:29:11;;;;;;;19.63;12.27;;;4.10;99.90;;;;;;8363498;28;20259;-81
2022/11/17 08:33:11;;;;;;;16.20;10.80;;;4.10;99.90;;;;;;8367226;28;20204;-79
2022/11/17 08:37:12;;;;;;;17.60;12.93;;;4.20;99.90;;;;;;8362810;28;20177;-79
2022/11/17 08:41:13;;;;;;;22.50;14.27;;;4.20;99.90;;;;;;8366552;28;20196;-79
2022/11/17 08:45:14;;;;;;;14.10;10.30;;;4.20;99.90;;;;;;8363684;28;20225;-79
2022/11/17 08:49:15;;;;;;;16.40;10.87;;;4.20;99.90;;;;;;8363404;28;20208;-79
2022/11/17 08:53:18;;;;;;;14.93;10.13;;;4.20;99.90;;;;;;8373700;28;20177;-79
2022/11/17 08:57:22;;;;;;;23.27;15.20;;;4.20;99.90;;;;;;8366204;28;20206;-78
2022/11/17 09:01:22;;;;;;;14.20;10.83;;;4.30;99.90;;;;;;8364864;28;20193;-79
2022/11/17 09:05:23;;;;;;;17.67;12.00;;;4.30;99.90;;;;;;8366883;28;20275;-79
2022/11/17 09:09:24;;;;;;;17.87;10.07;;;4.40;99.90;;;;;;8379676;28;20218;-79
2022/11/17 09:13:25;;;;;;;17.43;11.03;;;4.40;99.90;;;;;;8374739;28;20197;-78
2022/11/17 09:17:26;;;;;;;14.63;9.43;;;4.50;99.90;;;;;;8371809;28;20190;-79
2022/11/17 09:21:27;;;;;;;11.03;8.60;;;4.60;99.90;;;;;;8370312;28;20193;-79
2022/11/17 09:25:29;;;;;;;12.70;9.50;;;4.70;99.90;;;;;;8371400;28;20194;-80
2022/11/17 09:29:30;;;;;;;27.67;13.50;;;4.70;99.90;;;;;;8366360;28;20221;-80
2022/11/17 09:33:31;;;;;;;15.23;9.93;;;4.70;99.90;;;;;;8368512;28;20178;-79
2022/11/17 09:37:31;;;;;;;11.53;8.77;;;4.70;99.90;;;;;;8369907;28;20224;-80
2022/11/17 09:41:48;;;;;;;15.07;10.47;;;4.70;99.90;;;;;;8372223;28;20318;-79
2022/11/17 09:45:51;;;;;;;14.03;10.90;;;4.80;99.90;;;;;;8380443;28;20211;-79
2022/11/17 09:50:22;;;;;;;11.40;8.80;;;4.70;99.90;;;;;;8372515;28;20293;-80
2022/11/17 09:54:32;;;;;;;13.03;9.73;;;4.70;99.90;;;;;;8367269;28;20194;-79
2022/11/17 09:58:41;;;;;;;13.27;9.60;;;4.70;99.90;;;;;;8380126;28;20217;-79
2022/11/17 10:02:42;;;;;;;15.70;10.73;;;4.70;99.90;;;;;;8375892;28;20212;-81
2022/11/17 10:06:46;;;;;;;12.97;9.33;;;4.70;99.90;;;;;;8376443;28;20182;-78
2022/11/17 10:10:49;;;;;;;12.43;8.83;;;4.60;99.90;;;;;;8384543;28;20208;-79
2022/11/17 10:14:50;;;;;;;19.80;13.20;;;4.70;99.90;;;;;;8374436;28;20340;-80
2022/11/17 10:18:51;;;;;;;15.40;9.83;;;4.70;99.90;;;;;;8376622;28;20185;-79
2022/11/17 10:22:53;;;;;;;15.67;9.53;;;4.70;99.90;;;;;;8372911;28;20224;-79
2022/11/17 10:26:54;;;;;;;75.40;31.13;;;4.80;99.90;;;;;;8376079;28;20325;-79
2022/11/17 10:31:04;;;;;;;52.30;26.93;;;4.90;99.90;;;;;;8373513;28;20209;-81
2022/11/17 10:35:21;;;;;;;17.17;9.93;;;4.90;99.90;;;;;;8368150;28;20185;-78
2022/11/17 10:39:37;;;;;;;28.97;16.77;;;5.00;99.90;;;;;;8376637;28;20249;-78
2022/11/17 10:43:41;;;;;;;15.33;10.10;;;5.10;99.90;;;;;;8365840;28;20185;-79
2022/11/17 10:47:42;;;;;;;14.00;8.57;;;5.10;99.90;;;;;;8373146;28;20209;-80
2022/11/17 10:51:42;;;;;;;13.63;9.17;;;5.20;99.90;;;;;;8381691;28;20189;-80
2022/11/17 10:55:43;;;;;;;10.90;8.33;;;5.10;99.90;;;;;;8376550;28;20213;-82
2022/11/17 10:59:56;;;;;;;11.00;7.20;;;5.00;99.90;;;;;;8374472;28;20216;-81
2022/11/17 11:03:56;;;;;;;10.00;7.30;;;5.00;99.90;;;;;;8366837;28;20269;-79
2022/11/17 11:08:20;;;;;;;12.30;7.40;;;4.90;99.90;;;;;;8375948;28;20204;-79
2022/11/17 11:12:48;;;;;;;8.33;7.00;;;4.80;99.90;;;;;;8369237;28;20189;-79
2022/11/17 11:16:49;;;;;;;9.90;7.03;;;4.80;99.90;;;;;;8376194;28;20195;-80
2022/11/17 11:20:59;;;;;;;15.47;8.97;;;4.80;99.90;;;;;;8369651;28;20184;-79
2022/11/17 11:25:00;;;;;;;8.80;7.30;;;4.70;99.90;;;;;;8370888;28;20185;-80
2022/11/17 11:29:16;;;;;;;6.90;5.83;;;4.70;99.90;;;;;;8376735;28;20243;-80
2022/11/17 11:33:37;;;;;;;8.40;6.90;;;4.60;99.90;;;;;;8367751;28;20186;-80
2022/11/17 11:37:53;;;;;;;8.57;7.07;;;4.50;99.90;;;;;;8371701;28;20243;-80
2022/11/17 11:42:09;;;;;;;9.77;7.23;;;4.50;99.90;;;;;;8373080;28;20185;-77
2022/11/17 11:46:18;;;;;;;13.03;8.50;;;4.50;99.90;;;;;;8370171;28;20217;-76
2022/11/17 11:50:25;;;;;;;11.13;9.10;;;4.40;99.90;;;;;;8368209;28;20228;-79
2022/11/17 11:54:42;;;;;;;11.43;9.30;;;4.40;99.90;;;;;;8384329;28;20268;-79
2022/11/17 11:58:59;;;;;;;10.53;7.67;;;4.30;99.90;;;;;;8368315;28;20282;-80
2022/11/17 12:03:29;;;;;;;13.77;9.07;;;4.30;99.90;;;;;;8370783;28;20182;-79
2022/11/17 12:07:48;;;;;;;9.63;7.33;;;4.40;99.90;;;;;;8371802;28;20204;-80
2022/11/17 12:11:59;;;;;;;15.80;10.50;;;4.40;99.90;;;;;;8375164;28;20178;-79
2022/11/17 12:16:17;;;;;;;11.83;8.77;;;4.40;99.90;;;;;;8353781;28;20182;-79
2022/11/17 12:20:29;;;;;;;12.97;8.30;;;4.40;99.90;;;;;;8365906;28;20181;-79
2022/11/17 12:24:38;;;;;;;14.63;9.00;;;4.40;99.90;;;;;;8369620;28;20226;-80
2022/11/17 12:28:40;;;;;;;10.17;7.70;;;4.40;99.90;;;;;;8365728;28;20485;-79
2022/11/17 12:32:47;;;;;;;12.37;8.93;;;4.50;99.90;;;;;;8375855;28;20272;-80
2022/11/17 12:37:17;;;;;;;12.10;8.57;;;4.40;99.90;;;;;;8372213;28;20268;-80
2022/11/17 12:41:49;;;;;;;14.60;9.87;;;4.50;99.90;;;;;;8369303;28;20189;-80
2022/11/17 12:46:02;;;;;;;9.23;7.53;;;4.50;99.90;;;;;;8368261;28;20213;-80
2022/11/17 12:50:18;;;;;;;8.20;7.17;;;4.50;99.90;;;;;;8373352;28;20634;-79
2022/11/17 12:54:53;;;;;;;11.73;7.20;;;4.50;99.90;;;;;;8366190;28;20186;-80
2022/11/17 12:59:13;;;;;;;10.33;7.53;;;4.50;99.90;;;;;;8370062;28;20221;-80
2022/11/17 13:03:24;;;;;;;7.73;6.77;;;4.50;99.90;;;;;;8372645;28;20214;-80
2022/11/17 13:07:26;;;;;;;10.47;7.67;;;4.40;99.90;;;;;;8366057;28;20292;-77
2022/11/17 13:11:28;;;;;;;14.53;8.93;;;4.40;99.90;;;;;;8368953;28;20188;-77
2022/11/17 13:15:29;;;;;;;9.77;6.63;;;4.40;99.90;;;;;;8374436;28;20181;-78
2022/11/17 13:19:38;;;;;;;9.77;6.70;;;4.30;99.90;;;;;;8374286;28;20181;-77
2022/11/17 13:23:44;;;;;;;13.93;8.30;;;4.30;99.90;;;;;;8375604;28;20193;-78
2022/11/17 13:27:44;;;;;;;10.67;5.57;;;4.20;99.90;;;;;;8376590;28;20257;-77
2022/11/17 13:31:47;;;;;;;7.23;5.60;;;4.20;99.90;;;;;;8372633;28;20180;-78
2022/11/17 13:35:50;;;;;;;9.30;5.43;;;4.10;99.90;;;;;;8385980;28;20250;-78
2022/11/17 13:39:59;;;;;;;9.43;6.50;;;4.20;99.90;;;;;;8369457;28;20272;-78
2022/11/17 13:44:00;;;;;;;10.07;6.67;;;4.10;99.90;;;;;;8371504;28;20185;-78
2022/11/17 13:48:01;;;;;;;15.70;8.63;;;4.10;99.90;;;;;;8373355;28;20255;-77
2022/11/17 13:52:04;;;;;;;9.60;6.47;;;4.10;99.90;;;;;;8374824;28;20223;-78
2022/11/17 13:56:23;;;;;;;5.90;5.10;;;4.10;99.90;;;;;;8373818;28;20257;-79
2022/11/17 14:00:26;;;;;;;7.87;5.77;;;4.10;99.90;;;;;;8368311;28;20193;-79
2022/11/17 14:04:26;;;;;;;12.27;7.70;;;4.00;99.90;;;;;;8370890;28;20252;-78
2022/11/17 14:08:30;;;;;;;11.57;7.77;;;4.00;99.90;;;;;;8376724;28;20223;-78
2022/11/17 14:12:31;;;;;;;7.53;5.57;;;4.00;99.90;;;;;;8367635;28;20181;-79
2022/11/17 14:16:38;;;;;;;7.90;6.33;;;4.00;99.90;;;;;;8375979;28;20268;-78
2022/11/17 14:20:39;;;;;;;12.50;8.57;;;3.90;99.90;;;;;;8373771;28;20220;-78
2022/11/17 14:24:40;;;;;;;18.10;10.57;;;3.90;99.90;;;;;;8371438;28;20245;-78
2022/11/17 14:28:41;;;;;;;7.90;5.70;;;3.90;99.90;;;;;;8374661;28;20206;-78
2022/11/17 14:32:41;;;;;;;12.33;7.40;;;3.90;99.90;;;;;;8371541;28;20514;-80
2022/11/17 14:36:43;;;;;;;9.73;6.90;;;3.90;99.90;;;;;;8372111;28;20184;-78
2022/11/17 14:40:44;;;;;;;10.33;7.03;;;3.90;99.90;;;;;;8371471;28;20501;-78
2022/11/17 14:44:45;;;;;;;10.90;7.30;;;3.90;99.90;;;;;;8369689;28;20314;-78
2022/11/17 14:48:46;;;;;;;7.63;5.60;;;3.80;99.90;;;;;;8370107;28;20479;-79
2022/11/17 14:52:46;;;;;;;10.33;6.87;;;3.90;99.90;;;;;;8375070;28;20177;-78
2022/11/17 14:56:47;;;;;;;10.27;6.07;;;3.80;99.90;;;;;;8370577;28;20292;-78
2022/11/17 15:00:48;;;;;;;13.40;9.20;;;3.80;99.90;;;;;;8367381;28;20177;-79
2022/11/17 15:04:49;;;;;;;9.73;7.03;;;3.70;99.90;;;;;;8369407;28;20185;-79
2022/11/17 15:09:15;;;;;;;10.90;7.97;;;3.70;99.90;;;;;;8370799;28;20215;-78
2022/11/17 15:13:15;;;;;;;10.43;7.20;;;3.70;99.90;;;;;;8368446;28;20188;-78
2022/11/17 15:17:17;;;;;;;15.37;10.73;;;3.60;99.90;;;;;;8368791;28;20188;-78
2022/11/17 15:21:17;;;;;;;8.67;6.50;;;3.60;99.90;;;;;;8362568;28;20185;-78
2022/11/17 15:25:18;;;;;;;9.73;7.60;;;3.60;99.90;;;;;;8370480;28;20249;-79
2022/11/17 15:29:19;;;;;;;10.87;7.23;;;3.60;99.90;;;;;;8371252;28;20208;-79
2022/11/17 15:33:20;;;;;;;8.40;5.77;;;3.60;99.90;;;;;;8367033;28;20181;-78
2022/11/17 15:37:21;;;;;;;9.73;6.97;;;3.50;99.90;;;;;;8370309;28;20229;-80
2022/11/17 15:41:21;;;;;;;15.80;9.33;;;3.50;99.90;;;;;;8371547;28;20185;-78
2022/11/17 15:45:22;;;;;;;15.50;8.53;;;3.50;99.90;;;;;;8363242;28;20263;-78
2022/11/17 15:49:23;;;;;;;13.27;7.97;;;3.50;99.90;;;;;;8375142;28;20208;-79
2022/11/17 15:53:29;;;;;;;15.40;11.03;;;3.50;99.90;;;;;;8375441;28;20182;-77
2022/11/17 15:57:30;;;;;;;17.47;10.90;;;3.50;99.90;;;;;;8372286;28;20212;-78
2022/11/17 16:01:36;;;;;;;23.10;13.50;;;3.50;99.90;;;;;;8369741;28;20194;-78
2022/11/17 16:05:36;;;;;;;28.30;16.40;;;3.50;99.90;;;;;;8367673;28;20186;-77
2022/11/17 16:09:37;;;;;;;21.33;14.63;;;3.50;99.90;;;;;;8368921;28;20205;-78
2022/11/17 16:13:38;;;;;;;22.90;15.17;;;3.50;99.90;;;;;;8366785;28;20273;-79
2022/11/17 16:17:39;;;;;;;22.27;13.97;;;3.40;99.90;;;;;;8366541;28;20280;-78
2022/11/17 16:21:40;;;;;;;23.77;15.23;;;3.40;99.90;;;;;;8366723;28;20189;-77
2022/11/17 16:25:43;;;;;;;23.63;16.03;;;3.40;99.90;;;;;;8364285;28;20246;-78
2022/11/17 16:29:43;;;;;;;27.03;16.50;;;3.40;99.90;;;;;;8369566;28;20220;-78
2022/11/17 16:33:48;;;;;;;61.27;31.87;;;3.40;99.90;;;;;;8370031;28;20241;-78
2022/11/17 16:37:53;;;;;;;9.90;8.23;;;3.30;99.90;;;;;;8364890;28;20227;-78
2022/11/17 16:41:54;;;;;;;12.33;10.23;;;3.30;99.90;;;;;;8370490;28;20177;-79
2022/11/17 16:45:55;;;;;;;10.03;7.83;;;3.30;99.90;;;;;;8371711;28;20443;-79
2022/11/17 16:49:56;;;;;;;23.03;11.90;;;3.20;99.90;;;;;;8372418;28;20237;-79
2022/11/17 16:54:10;;;;;;;18.43;10.53;;;3.30;99.90;;;;;;8374817;28;20182;-80
2022/11/17 16:58:11;;;;;;;29.40;14.27;;;3.20;99.90;;;;;;8371263;28;20201;-79
2022/11/17 17:02:12;;;;;;;26.57;14.70;;;3.20;99.90;;;;;;8365174;28;20297;-78
2022/11/17 17:06:17;;;;;;;11.23;8.13;;;3.20;99.90;;;;;;8371353;28;20184;-79
2022/11/17 17:10:18;;;;;;;10.33;7.30;;;3.20;99.90;;;;;;8375594;28;20221;-78
2022/11/17 17:14:19;;;;;;;14.03;9.00;;;3.20;99.90;;;;;;8374229;28;20206;-78
2022/11/17 17:18:19;;;;;;;14.53;9.93;;;3.20;99.90;;;;;;8368264;28;20190;-79
2022/11/17 17:22:21;;;;;;;15.67;10.17;;;3.10;99.90;;;;;;8372054;28;20196;-79
2022/11/17 17:26:23;;;;;;;21.40;12.43;;;3.20;99.90;;;;;;8371412;28;20201;-79
2022/11/17 17:30:24;;;;;;;19.83;11.40;;;3.20;99.90;;;;;;8371275;28;20221;-80
2022/11/17 17:34:25;;;;;;;19.30;12.17;;;3.20;99.90;;;;;;8378095;28;20220;-78
2022/11/17 17:38:27;;;;;;;10.70;8.50;;;3.10;99.90;;;;;;8370605;28;20682;-77
2022/11/17 17:42:29;;;;;;;18.27;12.53;;;3.10;99.90;;;;;;8374395;28;20552;-78
2022/11/17 17:46:32;;;;;;;13.27;9.60;;;3.10;99.90;;;;;;8367312;28;20186;-78
2022/11/17 17:50:33;;;;;;;17.57;12.03;;;3.10;99.90;;;;;;8375525;28;20233;-79
2022/11/17 17:54:34;;;;;;;27.17;15.40;;;3.10;99.90;;;;;;8367880;28;20188;-78
2022/11/17 17:58:41;;;;;;;22.37;14.37;;;3.10;99.90;;;;;;8366097;28;20220;-78
2022/11/17 18:02:42;;;;;;;24.57;15.63;;;3.00;99.90;;;;;;8371422;28;20194;-78
2022/11/17 18:06:46;;;;;;;29.90;17.10;;;3.10;99.90;;;;;;8367013;28;20195;-79
2022/11/17 18:10:47;;;;;;;31.70;17.87;;;3.00;99.90;;;;;;8368541;28;20251;-79
2022/11/17 18:14:48;;;;;;;16.97;12.20;;;3.00;99.90;;;;;;8369553;28;20182;-79
2022/11/17 18:18:54;;;;;;;16.83;10.30;;;3.00;99.90;;;;;;8370090;28;20257;-79
2022/11/17 18:22:55;;;;;;;20.67;13.00;;;3.00;99.90;;;;;;8368309;28;20241;-79
2022/11/17 18:26:56;;;;;;;26.43;15.07;;;3.00;99.90;;;;;;8376415;28;20202;-79
2022/11/17 18:31:01;;;;;;;17.30;11.93;;;3.00;99.90;;;;;;8373060;28;20180;-78
2022/11/17 18:35:02;;;;;;;13.30;9.93;;;3.00;99.90;;;;;;8370638;28;20169;-78
2022/11/17 18:39:03;;;;;;;15.93;11.07;;;3.00;99.90;;;;;;8376455;28;20200;-79
2022/11/17 18:43:04;;;;;;;29.60;23.10;;;2.90;99.90;;;;;;8373123;28;20493;-79
2022/11/17 18:47:05;;;;;;;24.83;15.57;;;2.90;99.90;;;;;;8369858;28;20186;-80
2022/11/17 18:51:13;;;;;;;27.97;15.03;;;2.90;99.90;;;;;;8371674;28;20199;-79
2022/11/17 18:55:14;;;;;;;41.10;19.93;;;2.90;99.90;;;;;;8369117;28;20191;-80
2022/11/17 18:59:17;;;;;;;25.77;14.63;;;2.90;99.90;;;;;;8368652;28;20209;-79
2022/11/17 19:03:18;;;;;;;19.53;12.13;;;2.90;99.90;;;;;;8368638;28;20284;-81
2022/11/17 19:07:19;;;;;;;13.77;8.90;;;2.80;99.90;;;;;;8367228;28;20244;-80
2022/11/17 19:11:22;;;;;;;18.40;12.43;;;2.80;99.90;;;;;;8373631;28;20378;-78
2022/11/17 19:15:23;;;;;;;27.90;16.73;;;2.80;99.90;;;;;;8371624;28;20181;-79
2022/11/17 19:19:24;;;;;;;18.17;11.80;;;2.80;99.90;;;;;;8369229;28;20537;-78
2022/11/17 19:23:25;;;;;;;20.17;12.17;;;2.80;99.90;;;;;;8370608;28;20192;-78
2022/11/17 19:27:26;;;;;;;15.77;10.83;;;2.80;99.90;;;;;;8373128;28;20212;-79
2022/11/17 19:31:27;;;;;;;26.63;13.87;;;2.70;99.90;;;;;;8376624;28;20176;-78
2022/11/17 19:35:28;;;;;;;32.10;19.53;;;2.70;99.90;;;;;;8373682;28;20190;-78
2022/11/17 19:39:29;;;;;;;46.50;24.27;;;2.70;99.90;;;;;;8373220;28;20178;-78
2022/11/17 19:43:30;;;;;;;29.50;15.63;;;2.70;99.90;;;;;;8370167;28;20364;-78
2022/11/17 19:47:31;;;;;;;24.83;14.10;;;2.70;99.90;;;;;;8367752;28;20201;-79
2022/11/17 19:51:35;;;;;;;26.67;13.97;;;2.60;99.90;;;;;;8376761;28;20182;-78
2022/11/17 19:55:35;;;;;;;27.03;14.13;;;2.60;99.90;;;;;;8375115;28;20216;-78
2022/11/17 19:59:36;;;;;;;21.23;12.70;;;2.60;99.90;;;;;;8365016;28;20210;-77
2022/11/17 20:03:38;;;;;;;18.13;12.90;;;2.60;99.90;;;;;;8366963;28;20185;-77
2022/11/17 20:07:39;;;;;;;29.20;19.43;;;2.60;99.90;;;;;;8368659;28;20212;-78
2022/11/17 20:11:40;;;;;;;26.03;15.63;;;2.60;99.90;;;;;;8371735;28;20209;-77
2022/11/17 20:15:41;;;;;;;24.73;16.37;;;2.60;99.90;;;;;;8370800;28;20196;-77
2022/11/17 20:19:42;;;;;;;18.73;13.17;;;2.60;99.90;;;;;;8369577;28;20184;-78
2022/11/17 20:23:44;;;;;;;29.40;17.43;;;2.60;99.90;;;;;;8372315;28;20185;-78
2022/11/17 20:27:45;;;;;;;41.40;19.43;;;2.60;99.90;;;;;;8371396;28;20205;-79
2022/11/17 20:31:47;;;;;;;26.63;15.37;;;2.50;99.90;;;;;;8374604;28;20207;-79
2022/11/17 20:35:48;;;;;;;21.77;12.50;;;2.50;99.90;;;;;;8368863;28;20204;-78
2022/11/17 20:39:49;;;;;;;18.10;12.83;;;2.50;99.90;;;;;;8363575;28;20189;-78
2022/11/17 20:43:52;;;;;;;19.53;12.13;;;2.50;99.90;;;;;;8364862;28;20185;-77
2022/11/17 20:47:53;;;;;;;22.63;12.97;;;2.50;99.90;;;;;;8350436;28;20212;-78
2022/11/17 20:51:54;;;;;;;23.83;14.73;;;2.50;99.90;;;;;;8368639;28;20201;-78
2022/11/17 20:55:56;;;;;;;24.73;14.83;;;2.40;99.90;;;;;;8363540;28;20189;-79
2022/11/17 20:59:57;;;;;;;14.83;9.83;;;2.50;99.90;;;;;;8347344;28;20214;-80
2022/11/17 21:03:58;;;;;;;13.73;8.90;;;2.50;99.90;;;;;;8373805;28;20296;-78
2022/11/17 21:08:01;;;;;;;21.30;12.90;;;2.40;99.90;;;;;;8368463;28;20304;-78
2022/11/17 21:12:02;;;;;;;25.33;14.07;;;2.40;99.90;;;;;;8365315;28;20182;-79
2022/11/17 21:16:10;;;;;;;16.87;11.07;;;2.40;99.90;;;;;;8365358;28;20192;-79
2022/11/17 21:20:10;;;;;;;23.00;13.63;;;2.40;99.90;;;;;;8364586;28;20212;-79
2022/11/17 21:24:12;;;;;;;22.37;11.63;;;2.30;99.90;;;;;;8367123;28;20191;-78
2022/11/17 21:28:13;;;;;;;13.33;8.87;;;2.40;99.90;;;;;;8364714;28;20361;-80
2022/11/17 21:32:14;;;;;;;12.50;9.10;;;2.30;99.90;;;;;;8375805;28;20511;-79